createdAt,value
2018-04-15T00:00:01.279Z,11.10
2018-04-15T00:02:28.298Z,11.20
2018-04-15T00:07:27.323Z,11.20
2018-04-15T00:09:55.180Z,11.40
2018-04-15T00:14:49.232Z,11.50
2018-04-15T00:17:16.248Z,11.50
2018-04-15T00:22:22.828Z,12.70
2018-04-15T00:24:49.822Z,10.90
2018-04-15T00:27:16.801Z,11.10
2018-04-15T00:29:43.828Z,10.90
2018-04-15T00:32:10.798Z,10.70
2018-04-15T00:34:37.775Z,10.90
2018-04-15T00:37:04.790Z,10.70
2018-04-15T00:42:09.904Z,12.00
2018-04-15T00:44:36.878Z,10.60
2018-04-15T00:47:04.715Z,10.80
2018-04-15T00:49:31.724Z,10.90
2018-04-15T00:52:00.038Z,11.00
2018-04-15T00:56:54.130Z,10.70
2018-04-15T00:59:21.105Z,10.40
2018-04-15T01:01:48.083Z,10.30
2018-04-15T01:04:15.095Z,10.40
2018-04-15T01:06:42.069Z,10.30
2018-04-15T01:09:12.673Z,10.20
2018-04-15T01:11:39.685Z,10.30
2018-04-15T01:14:06.675Z,10.00
2018-04-15T01:16:34.470Z,10.00
2018-04-15T01:19:01.494Z,9.90
2018-04-15T01:21:28.471Z,9.80
2018-04-15T01:23:55.453Z,9.80
2018-04-15T01:26:22.464Z,9.70
2018-04-15T01:28:49.446Z,9.70
2018-04-15T01:31:16.428Z,9.80
2018-04-15T01:33:43.445Z,9.80
2018-04-15T01:36:10.424Z,9.80
2018-04-15T01:38:37.399Z,9.90
2018-04-15T01:43:31.476Z,9.80
2018-04-15T01:45:58.451Z,9.90
2018-04-15T01:48:25.470Z,9.90
2018-04-15T01:50:52.474Z,9.70
2018-04-15T01:53:19.447Z,9.70
2018-04-15T01:55:46.465Z,9.80
2018-04-15T01:58:13.442Z,9.80
2018-04-15T02:00:40.413Z,10.00
2018-04-15T02:03:07.429Z,10.10
2018-04-15T02:08:13.665Z,12.40
2018-04-15T02:10:40.640Z,10.40
2018-04-15T02:13:09.495Z,10.50
2018-04-15T02:18:01.733Z,10.50
2018-04-15T02:20:28.723Z,10.50
2018-04-15T02:22:55.732Z,10.50
2018-04-15T02:25:22.714Z,10.50
2018-04-15T02:27:49.691Z,10.40
2018-04-15T02:30:16.721Z,10.40
2018-04-15T02:32:43.711Z,10.30
2018-04-15T02:35:11.581Z,10.30
2018-04-15T02:37:38.582Z,10.20
2018-04-15T02:40:05.562Z,10.30
2018-04-15T02:42:33.397Z,10.50
2018-04-15T02:45:00.942Z,10.50
2018-04-15T02:47:27.918Z,10.40
2018-04-15T02:49:54.891Z,9.90
2018-04-15T02:52:21.909Z,9.60
2018-04-15T02:54:48.883Z,9.90
2018-04-15T02:57:15.869Z,10.10
2018-04-15T02:59:42.877Z,10.30
2018-04-15T03:02:09.859Z,10.50
2018-04-15T03:04:36.830Z,10.40
2018-04-15T03:07:03.852Z,10.00
2018-04-15T03:09:31.582Z,9.70
2018-04-15T03:11:58.576Z,9.50
2018-04-15T03:16:52.647Z,9.20
2018-04-15T03:19:19.620Z,9.30
2018-04-15T03:21:46.638Z,9.20
2018-04-15T03:24:13.614Z,9.10
2018-04-15T03:26:40.584Z,9.10
2018-04-15T03:29:07.597Z,8.90
2018-04-15T03:34:13.063Z,10.00
2018-04-15T03:36:40.040Z,8.80
2018-04-15T03:39:07.021Z,9.00
2018-04-15T03:41:34.042Z,9.10
2018-04-15T03:44:01.015Z,9.00
2018-04-15T03:48:55.098Z,8.90
2018-04-15T03:51:22.456Z,9.10
2018-04-15T03:53:49.424Z,9.10
2018-04-15T03:56:16.451Z,9.20
2018-04-15T03:58:43.421Z,9.30
2018-04-15T04:01:11.381Z,9.50
2018-04-15T04:06:18.211Z,9.80
2018-04-15T04:08:45.228Z,10.00
2018-04-15T04:11:12.205Z,10.00
2018-04-15T04:13:39.182Z,10.00
2018-04-15T04:16:06.198Z,10.00
2018-04-15T04:18:45.057Z,10.00
2018-04-15T04:21:23.824Z,10.00
2018-04-15T04:24:02.596Z,9.80
2018-04-15T04:26:32.667Z,9.80
2018-04-15T04:28:59.636Z,9.70
2018-04-15T04:31:26.611Z,9.40
2018-04-15T04:36:20.699Z,9.10
2018-04-15T04:38:47.679Z,9.20
2018-04-15T04:41:14.677Z,9.40
2018-04-15T04:43:41.667Z,9.60
2018-04-15T04:46:08.647Z,9.80
2018-04-15T04:48:35.662Z,9.90
2018-04-15T04:51:02.626Z,9.90
2018-04-15T04:53:29.603Z,10.00
2018-04-15T04:55:56.609Z,10.00
2018-04-15T04:58:23.590Z,10.00
2018-04-15T05:00:50.567Z,9.90
2018-04-15T05:03:17.595Z,9.70
2018-04-15T05:05:44.568Z,9.70
2018-04-15T05:08:11.539Z,9.40
2018-04-15T05:10:38.547Z,9.30
2018-04-15T05:13:06.352Z,9.30
2018-04-15T05:15:36.166Z,9.30
2018-04-15T05:18:00.362Z,9.30
2018-04-15T05:20:27.342Z,9.20
2018-04-15T05:22:54.309Z,9.20
2018-04-15T05:25:21.314Z,9.30
2018-04-15T05:27:48.282Z,9.30
2018-04-15T05:32:54.672Z,11.30
2018-04-15T05:35:21.638Z,9.50
2018-04-15T05:37:48.608Z,9.50
2018-04-15T05:40:15.625Z,9.70
2018-04-15T05:42:42.601Z,9.90
2018-04-15T05:45:09.576Z,10.00
2018-04-15T05:47:40.856Z,10.10
2018-04-15T05:50:08.727Z,10.30
2018-04-15T05:52:35.706Z,10.30
2018-04-15T05:55:02.734Z,10.10
2018-04-15T05:57:30.021Z,10.20
2018-04-15T06:02:23.795Z,9.90
2018-04-15T06:04:50.775Z,9.90
2018-04-15T06:07:18.557Z,9.80
2018-04-15T06:09:47.226Z,9.80
2018-04-15T06:12:14.528Z,9.80
2018-04-15T06:14:41.507Z,10.00
2018-04-15T06:17:08.518Z,9.90
2018-04-15T06:19:37.521Z,10.00
2018-04-15T06:22:02.477Z,10.10
2018-04-15T06:24:33.841Z,10.30
2018-04-15T06:27:00.789Z,10.40
2018-04-15T06:29:27.853Z,10.20
2018-04-15T06:31:54.868Z,10.40
2018-04-15T06:34:21.840Z,10.20
2018-04-15T06:36:48.873Z,10.20
2018-04-15T06:39:15.821Z,10.40
2018-04-15T06:41:42.809Z,10.40
2018-04-15T06:44:09.794Z,10.50
2018-04-15T06:46:36.804Z,10.50
2018-04-15T06:49:03.786Z,10.60
2018-04-15T06:54:09.274Z,10.60
2018-04-15T06:56:36.252Z,10.80
2018-04-15T06:59:03.215Z,11.00
2018-04-15T07:01:30.281Z,11.10
2018-04-15T07:03:57.202Z,11.20
2018-04-15T07:06:24.177Z,11.20
2018-04-15T07:08:51.204Z,11.20
2018-04-15T07:11:18.186Z,11.30
2018-04-15T07:13:45.163Z,11.40
2018-04-15T07:16:12.168Z,11.40
2018-04-15T07:18:39.141Z,11.60
2018-04-15T07:21:06.118Z,11.60
2018-04-15T07:23:36.439Z,11.70
2018-04-15T07:26:03.410Z,11.60
2018-04-15T07:28:33.240Z,11.40
2018-04-15T07:30:57.405Z,11.50
2018-04-15T07:33:24.378Z,11.30
2018-04-15T07:35:51.349Z,11.40
2018-04-15T07:38:18.367Z,11.50
2018-04-15T07:40:45.341Z,11.50
2018-04-15T07:43:12.322Z,11.60
2018-04-15T07:45:39.587Z,11.80
2018-04-15T07:48:07.514Z,11.90
2018-04-15T07:50:35.328Z,11.80
2018-04-15T07:53:03.312Z,12.00
2018-04-15T07:55:32.162Z,12.00
2018-04-15T07:57:59.141Z,12.10
2018-04-15T08:00:26.172Z,12.00
2018-04-15T08:02:53.465Z,12.00
2018-04-15T08:05:20.865Z,12.00
2018-04-15T08:07:48.020Z,11.80
2018-04-15T08:10:14.866Z,11.90
2018-04-15T08:12:41.865Z,12.00
2018-04-15T08:17:47.343Z,13.70
2018-04-15T08:20:14.377Z,12.00
2018-04-15T08:22:41.353Z,11.90
2018-04-15T08:25:08.600Z,12.00
2018-04-15T08:27:35.627Z,12.20
2018-04-15T08:30:02.613Z,12.00
2018-04-15T08:32:30.439Z,12.00
2018-04-15T08:34:57.464Z,12.20
2018-04-15T08:37:24.443Z,11.60
2018-04-15T08:39:51.414Z,11.70
2018-04-15T08:42:22.086Z,12.10
2018-04-15T08:44:49.062Z,11.90
2018-04-15T08:47:16.043Z,12.10
2018-04-15T08:49:43.061Z,12.10
2018-04-15T08:52:10.032Z,12.30
2018-04-15T08:54:37.006Z,12.10
2018-04-15T08:57:05.426Z,12.20
2018-04-15T08:59:32.432Z,11.90
2018-04-15T09:01:59.424Z,12.20
2018-04-15T09:04:27.583Z,13.10
2018-04-15T09:06:54.561Z,13.90
2018-04-15T09:09:21.544Z,13.40
2018-04-15T09:11:48.563Z,13.40
2018-04-15T09:14:15.550Z,13.60
2018-04-15T09:16:42.530Z,13.70
2018-04-15T09:21:37.681Z,13.20
2018-04-15T09:24:04.658Z,13.20
2018-04-15T09:26:31.683Z,13.20
2018-04-15T09:28:58.673Z,13.20
2018-04-15T09:31:27.084Z,13.00
2018-04-15T09:36:35.061Z,13.20
2018-04-15T09:39:02.073Z,13.20
2018-04-15T09:41:29.053Z,13.20
2018-04-15T09:43:56.286Z,13.50
2018-04-15T09:46:23.123Z,13.10
2018-04-15T09:48:50.047Z,13.30
2018-04-15T09:51:17.029Z,13.10
2018-04-15T09:53:44.082Z,13.10
2018-04-15T09:56:11.066Z,11.80
2018-04-15T09:58:38.073Z,13.30
2018-04-15T10:01:05.094Z,13.50
2018-04-15T10:03:32.076Z,13.40
2018-04-15T10:05:59.053Z,13.60
2018-04-15T10:08:26.099Z,13.70
2018-04-15T10:13:35.163Z,14.10
2018-04-15T10:16:02.973Z,14.00
2018-04-15T10:20:57.486Z,13.70
2018-04-15T10:23:24.482Z,14.00
2018-04-15T10:25:51.480Z,13.90
2018-04-15T10:28:18.523Z,14.00
2018-04-15T10:30:45.510Z,14.10
2018-04-15T10:33:12.486Z,14.30
2018-04-15T10:35:39.928Z,14.20
2018-04-15T10:38:06.912Z,14.40
2018-04-15T10:40:33.887Z,14.60
2018-04-15T10:43:00.903Z,14.50
2018-04-15T10:45:27.881Z,14.70
2018-04-15T10:47:54.901Z,15.10
2018-04-15T10:50:23.228Z,15.30
2018-04-15T10:52:50.225Z,15.60
2018-04-15T10:55:17.210Z,16.10
2018-04-15T10:57:45.135Z,16.50
2018-04-15T11:00:12.161Z,16.10
2018-04-15T11:02:39.149Z,16.70
2018-04-15T11:05:06.177Z,16.80
2018-04-15T11:07:33.161Z,17.10
2018-04-15T11:10:00.151Z,17.00
2018-04-15T11:12:27.169Z,16.90
2018-04-15T11:14:54.155Z,17.20
2018-04-15T11:17:21.131Z,17.30
2018-04-15T11:19:48.162Z,17.70
2018-04-15T11:22:17.011Z,17.80
2018-04-15T11:24:43.987Z,17.70
2018-04-15T11:27:10.999Z,17.80
2018-04-15T11:29:37.981Z,17.70
2018-04-15T11:32:04.960Z,17.80
2018-04-15T11:34:32.014Z,18.10
2018-04-15T11:42:15.815Z,18.50
2018-04-15T11:44:42.838Z,18.50
2018-04-15T11:47:10.281Z,18.70
2018-04-15T11:49:37.269Z,18.50
2018-04-15T11:52:04.289Z,18.80
2018-04-15T11:54:31.277Z,18.60
2018-04-15T11:56:58.271Z,19.10
2018-04-15T11:59:25.285Z,19.30
2018-04-15T12:01:52.268Z,19.80
2018-04-15T12:04:19.272Z,20.10
2018-04-15T12:06:46.299Z,20.00
2018-04-15T12:09:13.289Z,20.00
2018-04-15T12:11:40.277Z,19.60
2018-04-15T12:14:07.317Z,19.70
2018-04-15T12:16:35.656Z,19.90
2018-04-15T12:19:02.640Z,19.90
2018-04-15T12:21:29.671Z,20.00
2018-04-15T12:23:56.656Z,19.60
2018-04-15T12:26:23.636Z,19.90
2018-04-15T12:28:50.690Z,20.00
2018-04-15T12:31:17.967Z,19.40
2018-04-15T12:33:45.012Z,20.00
2018-04-15T12:36:11.995Z,20.10
2018-04-15T12:38:38.976Z,20.60
2018-04-15T12:41:05.958Z,20.10
2018-04-15T12:43:32.973Z,19.70
2018-04-15T12:45:59.950Z,20.20
2018-04-15T12:48:27.050Z,20.40
2018-04-15T12:50:53.959Z,20.30
2018-04-15T12:53:20.946Z,20.60
2018-04-15T12:55:48.285Z,20.90
2018-04-15T12:58:15.295Z,20.90
2018-04-15T13:00:42.280Z,20.00
2018-04-15T13:05:49.494Z,20.10
2018-04-15T13:08:16.471Z,20.50
2018-04-15T13:10:43.450Z,20.70
2018-04-15T13:13:10.472Z,20.80
2018-04-15T13:15:37.450Z,21.00
2018-04-15T13:18:04.448Z,21.00
2018-04-15T13:20:31.473Z,21.10
2018-04-15T13:22:58.447Z,21.10
2018-04-15T13:25:25.428Z,21.10
2018-04-15T13:27:52.454Z,20.50
2018-04-15T13:30:19.463Z,20.20
2018-04-15T13:32:46.403Z,20.50
2018-04-15T13:35:13.422Z,20.70
2018-04-15T13:37:42.208Z,20.80
2018-04-15T13:40:07.371Z,20.90
2018-04-15T13:42:34.377Z,20.90
2018-04-15T13:45:02.296Z,21.00
2018-04-15T13:47:29.272Z,21.30
2018-04-15T13:49:56.616Z,21.50
2018-04-15T13:52:23.735Z,21.00
2018-04-15T13:54:50.725Z,21.30
2018-04-15T13:57:17.767Z,21.20
2018-04-15T13:59:44.754Z,21.30
2018-04-15T14:02:11.767Z,21.60
2018-04-15T14:04:38.770Z,21.60
2018-04-15T14:07:05.771Z,21.80
2018-04-15T14:09:32.801Z,21.50
2018-04-15T14:11:59.840Z,21.40
2018-04-15T14:14:26.825Z,21.40
2018-04-15T14:16:54.638Z,21.10
2018-04-15T14:19:21.680Z,21.20
2018-04-15T14:21:49.633Z,21.50
2018-04-15T14:24:16.648Z,21.80
2018-04-15T14:26:43.660Z,21.90
2018-04-15T14:31:50.426Z,21.90
2018-04-15T14:34:17.416Z,21.90
2018-04-15T14:36:44.415Z,22.00
2018-04-15T14:39:11.470Z,22.20
2018-04-15T14:41:38.460Z,21.90
2018-04-15T14:44:05.458Z,21.80
2018-04-15T14:46:32.493Z,21.70
2018-04-15T14:49:00.463Z,21.70
2018-04-15T14:51:28.032Z,21.80
2018-04-15T14:53:56.003Z,21.70
2018-04-15T14:56:23.000Z,21.70
2018-04-15T14:58:53.683Z,21.70
2018-04-15T15:01:20.702Z,21.70
2018-04-15T15:03:47.701Z,21.80
2018-04-15T15:06:14.703Z,21.90
2018-04-15T15:08:42.700Z,21.80
2018-04-15T15:11:09.719Z,21.90
2018-04-15T15:13:36.720Z,22.00
2018-04-15T15:16:04.072Z,22.10
2018-04-15T15:18:31.096Z,22.10
2018-04-15T15:20:58.132Z,21.90
2018-04-15T15:23:25.151Z,21.90
2018-04-15T15:25:52.149Z,21.70
2018-04-15T15:28:20.073Z,21.80
2018-04-15T15:30:47.886Z,21.60
2018-04-15T15:33:14.881Z,21.30
2018-04-15T15:35:41.876Z,21.40
2018-04-15T15:38:08.925Z,21.50
2018-04-15T15:40:37.005Z,21.60
2018-04-15T15:45:43.780Z,21.60
2018-04-15T15:48:10.803Z,21.60
2018-04-15T15:50:37.801Z,21.50
2018-04-15T15:53:04.825Z,21.70
2018-04-15T15:55:31.838Z,21.40
2018-04-15T16:00:26.233Z,21.30
2018-04-15T16:02:53.215Z,20.90
2018-04-15T16:05:20.210Z,21.10
2018-04-15T16:07:47.246Z,20.90
2018-04-15T16:10:14.246Z,21.00
2018-04-15T16:12:41.231Z,20.90
2018-04-15T16:15:08.262Z,20.90
2018-04-15T16:17:35.256Z,21.00
2018-04-15T16:20:02.276Z,21.00
2018-04-15T16:22:29.325Z,21.00
2018-04-15T16:24:56.331Z,21.10
2018-04-15T16:27:24.293Z,21.10
2018-04-15T16:29:51.343Z,20.90
2018-04-15T16:32:19.294Z,20.70
2018-04-15T16:34:46.307Z,20.70
2018-04-15T16:37:13.339Z,20.70
2018-04-15T16:42:07.438Z,20.80
2018-04-15T16:44:34.886Z,20.80
2018-04-15T16:47:02.708Z,20.60
2018-04-15T16:49:29.708Z,20.50
2018-04-15T16:54:25.129Z,20.50
2018-04-15T16:56:52.120Z,20.50
2018-04-15T16:59:19.625Z,20.30
2018-04-15T17:01:49.290Z,20.20
2018-04-15T17:04:17.110Z,20.30
2018-04-15T17:06:44.148Z,20.20
2018-04-15T17:09:11.156Z,20.10
2018-04-15T17:14:16.679Z,19.80
2018-04-15T17:16:43.679Z,19.90
2018-04-15T17:19:10.928Z,20.00
2018-04-15T17:21:37.943Z,19.90
2018-04-15T17:24:04.937Z,19.80
2018-04-15T17:26:31.935Z,19.80
2018-04-15T17:28:58.976Z,19.70
2018-04-15T17:31:25.995Z,19.70
2018-04-15T17:33:53.029Z,19.80
2018-04-15T17:36:20.028Z,19.80
2018-04-15T17:38:47.356Z,19.80
2018-04-15T17:41:15.197Z,19.80
2018-04-15T17:43:42.286Z,19.60
2018-04-15T17:46:09.274Z,19.40
2018-04-15T17:48:36.714Z,19.40
2018-04-15T17:51:04.166Z,19.20
2018-04-15T17:53:31.181Z,19.20
2018-04-15T17:55:58.190Z,19.10
2018-04-15T17:58:25.225Z,18.80
2018-04-15T18:00:52.198Z,18.80
2018-04-15T18:03:19.179Z,18.60
2018-04-15T18:05:46.218Z,18.60
2018-04-15T18:08:13.221Z,18.50
2018-04-15T18:10:41.061Z,18.50
2018-04-15T18:13:08.079Z,18.40
2018-04-15T18:15:35.070Z,18.30
2018-04-15T18:18:02.077Z,18.40
2018-04-15T18:20:29.233Z,18.40
2018-04-15T18:22:56.332Z,18.40
2018-04-15T18:25:23.395Z,18.40
2018-04-15T18:27:50.511Z,18.30
2018-04-15T18:30:17.507Z,18.30
2018-04-15T18:32:44.550Z,18.20
2018-04-15T18:35:13.657Z,18.30
2018-04-15T18:42:47.920Z,18.20
2018-04-15T18:45:16.698Z,18.10
2018-04-15T18:47:43.673Z,17.90
2018-04-15T18:50:10.725Z,18.00
2018-04-15T18:55:04.770Z,17.80
2018-04-15T18:57:31.814Z,17.70
2018-04-15T18:59:58.837Z,17.80
2018-04-15T19:02:26.651Z,17.90
2018-04-15T19:04:54.544Z,17.90
2018-04-15T19:07:21.545Z,17.90
2018-04-15T19:09:48.665Z,17.80
2018-04-15T19:12:15.720Z,17.80
2018-04-15T19:14:42.675Z,17.70
2018-04-15T19:17:09.694Z,17.70
2018-04-15T19:19:36.740Z,19.00
2018-04-15T19:22:03.771Z,17.30
2018-04-15T19:24:30.751Z,17.40
2018-04-15T19:26:57.795Z,17.40
2018-04-15T19:32:05.276Z,17.30
2018-04-15T19:34:32.266Z,17.40
2018-04-15T19:36:59.284Z,17.40
2018-04-15T19:42:04.369Z,17.40
2018-04-15T19:44:31.406Z,17.40
2018-04-15T19:46:58.401Z,17.30
2018-04-15T19:49:25.540Z,17.30
2018-04-15T19:51:52.732Z,17.10
2018-04-15T19:54:19.771Z,17.10
2018-04-15T19:56:46.757Z,16.90
2018-04-15T19:59:13.788Z,16.90
2018-04-15T20:01:40.774Z,16.90
2018-04-15T20:04:07.759Z,16.90
2018-04-15T20:06:34.791Z,17.10
2018-04-15T20:09:02.097Z,17.10
2018-04-15T20:11:29.081Z,17.10
2018-04-15T20:13:56.115Z,17.10
2018-04-15T20:16:23.059Z,17.10
2018-04-15T20:18:50.037Z,17.00
2018-04-15T20:21:17.051Z,16.80
2018-04-15T20:23:44.607Z,16.70
2018-04-15T20:26:11.586Z,16.50
2018-04-15T20:28:38.855Z,16.50
2018-04-15T20:31:05.846Z,16.40
2018-04-15T20:33:32.896Z,16.50
2018-04-15T20:35:59.966Z,16.40
2018-04-15T20:38:26.931Z,16.40
2018-04-15T20:40:53.897Z,16.30
2018-04-15T20:43:21.080Z,16.30
2018-04-15T20:45:48.064Z,16.40
2018-04-15T20:48:15.046Z,16.40
2018-04-15T20:50:42.057Z,16.50
2018-04-15T20:53:09.780Z,16.50
2018-04-15T20:55:36.767Z,16.50
2018-04-15T20:58:03.799Z,16.40
2018-04-15T21:00:30.784Z,16.40
2018-04-15T21:02:58.542Z,16.50
2018-04-15T21:08:07.759Z,16.30
2018-04-15T21:16:07.129Z,16.20
2018-04-15T21:18:34.695Z,16.20
2018-04-15T21:21:02.871Z,16.20
2018-04-15T21:23:31.032Z,16.10
2018-04-15T21:26:01.411Z,15.90
2018-04-15T21:31:06.743Z,15.50
2018-04-15T21:33:35.287Z,15.50
2018-04-15T21:36:03.660Z,15.60
2018-04-15T21:38:30.944Z,15.50
2018-04-15T21:41:00.217Z,15.30
2018-04-15T21:46:04.536Z,15.20
2018-04-15T21:59:34.440Z,15.00
2018-04-15T22:12:25.114Z,14.80
2018-04-15T22:14:53.586Z,14.90
2018-04-15T22:19:51.296Z,14.90
2018-04-15T22:22:19.772Z,14.90
2018-04-15T22:24:48.145Z,14.90
2018-04-15T22:27:16.656Z,14.80
2018-04-15T22:29:44.173Z,14.80
2018-04-15T22:32:11.542Z,14.70
2018-04-15T22:34:39.593Z,14.70
2018-04-15T22:37:08.013Z,14.70
2018-04-15T22:39:36.967Z,14.50
2018-04-15T22:42:04.458Z,14.50
2018-04-15T22:44:32.146Z,14.50
2018-04-15T22:46:59.883Z,14.60
2018-04-15T22:49:28.645Z,14.60
2018-04-15T22:51:57.175Z,15.00
2018-04-15T22:54:24.697Z,14.60
2018-04-15T22:56:53.268Z,14.40
2018-04-15T22:59:20.922Z,14.40
2018-04-15T23:01:48.812Z,14.50
2018-04-15T23:04:16.467Z,14.40
2018-04-15T23:06:45.333Z,14.30
2018-04-15T23:09:13.708Z,14.30
2018-04-15T23:11:46.384Z,14.30
2018-04-15T23:14:15.022Z,14.30
2018-04-15T23:16:43.813Z,14.30
2018-04-15T23:19:12.430Z,14.40
2018-04-15T23:21:40.085Z,14.30
2018-04-15T23:24:07.529Z,14.20
2018-04-15T23:26:34.999Z,14.20
2018-04-15T23:29:03.503Z,14.30
2018-04-15T23:31:31.094Z,14.20
2018-04-15T23:36:35.696Z,14.10
2018-04-15T23:39:04.212Z,14.10
2018-04-15T23:41:31.985Z,14.10
2018-04-15T23:44:00.383Z,14.20
2018-04-15T23:46:27.978Z,14.30
2018-04-15T23:48:56.432Z,14.20
2018-04-15T23:51:23.979Z,14.20
2018-04-15T23:56:19.142Z,14.20
2018-04-15T23:58:46.603Z,14.20
